sensor_id;sensor_type;location;lat;lon;timestamp;P1;durP1;ratioP1;P2;durP2;ratioP2
3054;SDS011;1537;52.018;8.542;2023-09-19T00:01:14;8.40;;;4.37;;
3054;SDS011;1537;52.018;8.542;2023-09-19T00:04:43;9.70;;;3.80;;
3054;SDS011;1537;52.018;8.542;2023-09-19T00:08:07;7.13;;;3.50;;
3054;SDS011;1537;52.018;8.542;2023-09-19T00:11:31;7.20;;;3.73;;
3054;SDS011;1537;52.018;8.542;2023-09-19T00:14:57;7.60;;;4.00;;
3054;SDS011;1537;52.018;8.542;2023-09-19T00:18:23;5.77;;;3.27;;
3054;SDS011;1537;52.018;8.542;2023-09-19T00:21:51;6.17;;;3.50;;
3054;SDS011;1537;52.018;8.542;2023-09-19T00:25:15;7.00;;;3.97;;
3054;SDS011;1537;52.018;8.542;2023-09-19T00:28:40;11.10;;;4.23;;
3054;SDS011;1537;52.018;8.542;2023-09-19T00:32:04;6.80;;;2.70;;
3054;SDS011;1537;52.018;8.542;2023-09-19T00:35:31;7.50;;;3.63;;
3054;SDS011;1537;52.018;8.542;2023-09-19T00:38:57;5.77;;;2.47;;
3054;SDS011;1537;52.018;8.542;2023-09-19T00:42:21;7.40;;;3.70;;
3054;SDS011;1537;52.018;8.542;2023-09-19T00:45:46;9.20;;;3.17;;
3054;SDS011;1537;52.018;8.542;2023-09-19T00:49:11;7.97;;;3.47;;
3054;SDS011;1537;52.018;8.542;2023-09-19T00:52:37;7.03;;;3.90;;
3054;SDS011;1537;52.018;8.542;2023-09-19T00:56:06;14.40;;;5.87;;
3054;SDS011;1537;52.018;8.542;2023-09-19T00:59:30;11.17;;;3.80;;
3054;SDS011;1537;52.018;8.542;2023-09-19T01:02:54;19.30;;;5.10;;
3054;SDS011;1537;52.018;8.542;2023-09-19T01:06:19;12.10;;;4.70;;
3054;SDS011;1537;52.018;8.542;2023-09-19T01:09:45;8.07;;;4.17;;
3054;SDS011;1537;52.018;8.542;2023-09-19T01:13:13;10.93;;;4.67;;
3054;SDS011;1537;52.018;8.542;2023-09-19T01:16:48;8.07;;;4.70;;
3054;SDS011;1537;52.018;8.542;2023-09-19T01:20:27;6.73;;;4.60;;
3054;SDS011;1537;52.018;8.542;2023-09-19T01:24:11;8.30;;;5.10;;
3054;SDS011;1537;52.018;8.542;2023-09-19T01:28:06;8.43;;;5.13;;
3054;SDS011;1537;52.018;8.542;2023-09-19T01:31:39;12.60;;;5.50;;
3054;SDS011;1537;52.018;8.542;2023-09-19T01:35:06;12.17;;;5.90;;
3054;SDS011;1537;52.018;8.542;2023-09-19T01:38:36;8.60;;;4.67;;
3054;SDS011;1537;52.018;8.542;2023-09-19T01:42:03;11.90;;;4.90;;
3054;SDS011;1537;52.018;8.542;2023-09-19T01:45:33;11.47;;;5.90;;
3054;SDS011;1537;52.018;8.542;2023-09-19T01:49:07;11.80;;;5.10;;
3054;SDS011;1537;52.018;8.542;2023-09-19T01:52:41;12.87;;;5.50;;
3054;SDS011;1537;52.018;8.542;2023-09-19T01:56:12;10.10;;;5.20;;
3054;SDS011;1537;52.018;8.542;2023-09-19T01:59:47;9.37;;;5.50;;
3054;SDS011;1537;52.018;8.542;2023-09-19T02:03:15;11.30;;;5.70;;
3054;SDS011;1537;52.018;8.542;2023-09-19T02:06:42;14.20;;;4.80;;
3054;SDS011;1537;52.018;8.542;2023-09-19T02:10:07;10.07;;;5.40;;
3054;SDS011;1537;52.018;8.542;2023-09-19T02:13:34;9.80;;;6.50;;
3054;SDS011;1537;52.018;8.542;2023-09-19T02:16:58;11.93;;;5.27;;
3054;SDS011;1537;52.018;8.542;2023-09-19T02:20:23;11.13;;;4.07;;
3054;SDS011;1537;52.018;8.542;2023-09-19T02:23:50;9.67;;;4.63;;
3054;SDS011;1537;52.018;8.542;2023-09-19T02:27:14;13.07;;;6.00;;
3054;SDS011;1537;52.018;8.542;2023-09-19T02:30:39;7.27;;;4.60;;
3054;SDS011;1537;52.018;8.542;2023-09-19T02:34:03;9.83;;;5.03;;
3054;SDS011;1537;52.018;8.542;2023-09-19T02:37:38;9.37;;;4.50;;
3054;SDS011;1537;52.018;8.542;2023-09-19T02:41:05;11.27;;;4.83;;
3054;SDS011;1537;52.018;8.542;2023-09-19T02:44:29;12.17;;;4.87;;
3054;SDS011;1537;52.018;8.542;2023-09-19T02:48:00;8.10;;;4.43;;
3054;SDS011;1537;52.018;8.542;2023-09-19T02:51:26;9.33;;;5.17;;
3054;SDS011;1537;52.018;8.542;2023-09-19T02:54:50;8.60;;;4.40;;
3054;SDS011;1537;52.018;8.542;2023-09-19T02:58:16;16.10;;;4.77;;
3054;SDS011;1537;52.018;8.542;2023-09-19T03:01:42;14.50;;;5.20;;
3054;SDS011;1537;52.018;8.542;2023-09-19T03:05:08;9.60;;;4.70;;
3054;SDS011;1537;52.018;8.542;2023-09-19T03:08:41;14.00;;;5.00;;
3054;SDS011;1537;52.018;8.542;2023-09-19T03:12:06;10.17;;;4.33;;
3054;SDS011;1537;52.018;8.542;2023-09-19T03:15:34;15.63;;;5.17;;
3054;SDS011;1537;52.018;8.542;2023-09-19T03:19:01;11.67;;;4.70;;
3054;SDS011;1537;52.018;8.542;2023-09-19T03:22:26;9.50;;;4.67;;
3054;SDS011;1537;52.018;8.542;2023-09-19T03:25:51;10.13;;;5.00;;
3054;SDS011;1537;52.018;8.542;2023-09-19T03:29:20;9.90;;;4.80;;
3054;SDS011;1537;52.018;8.542;2023-09-19T03:32:46;17.63;;;5.17;;
3054;SDS011;1537;52.018;8.542;2023-09-19T03:36:12;15.70;;;5.00;;
3054;SDS011;1537;52.018;8.542;2023-09-19T03:39:42;8.00;;;3.83;;
3054;SDS011;1537;52.018;8.542;2023-09-19T03:43:10;12.47;;;5.00;;
3054;SDS011;1537;52.018;8.542;2023-09-19T03:46:33;8.47;;;4.50;;
3054;SDS011;1537;52.018;8.542;2023-09-19T03:50:00;11.60;;;4.60;;
3054;SDS011;1537;52.018;8.542;2023-09-19T03:53:24;24.53;;;5.37;;
3054;SDS011;1537;52.018;8.542;2023-09-19T03:56:48;11.80;;;5.13;;
3054;SDS011;1537;52.018;8.542;2023-09-19T04:00:14;10.27;;;4.27;;
3054;SDS011;1537;52.018;8.542;2023-09-19T04:03:43;12.93;;;4.90;;
3054;SDS011;1537;52.018;8.542;2023-09-19T04:07:12;12.17;;;4.90;;
3054;SDS011;1537;52.018;8.542;2023-09-19T04:10:35;12.60;;;4.30;;
3054;SDS011;1537;52.018;8.542;2023-09-19T04:14:02;12.03;;;4.17;;
3054;SDS011;1537;52.018;8.542;2023-09-19T04:17:26;12.80;;;4.27;;
3054;SDS011;1537;52.018;8.542;2023-09-19T04:20:50;12.07;;;4.00;;
3054;SDS011;1537;52.018;8.542;2023-09-19T04:24:16;12.30;;;3.90;;
3054;SDS011;1537;52.018;8.542;2023-09-19T04:27:41;10.97;;;4.43;;
3054;SDS011;1537;52.018;8.542;2023-09-19T04:31:07;15.13;;;4.43;;
3054;SDS011;1537;52.018;8.542;2023-09-19T04:34:32;12.20;;;4.30;;
3054;SDS011;1537;52.018;8.542;2023-09-19T04:37:58;10.63;;;4.27;;
3054;SDS011;1537;52.018;8.542;2023-09-19T04:41:24;16.03;;;4.67;;
3054;SDS011;1537;52.018;8.542;2023-09-19T04:44:49;16.03;;;4.17;;
3054;SDS011;1537;52.018;8.542;2023-09-19T04:48:14;16.80;;;5.40;;
3054;SDS011;1537;52.018;8.542;2023-09-19T04:51:39;12.00;;;4.20;;
3054;SDS011;1537;52.018;8.542;2023-09-19T04:55:03;9.63;;;3.67;;
3054;SDS011;1537;52.018;8.542;2023-09-19T04:58:31;14.40;;;4.57;;
3054;SDS011;1537;52.018;8.542;2023-09-19T05:01:57;13.40;;;5.00;;
3054;SDS011;1537;52.018;8.542;2023-09-19T05:05:22;10.87;;;4.50;;
3054;SDS011;1537;52.018;8.542;2023-09-19T05:08:48;12.37;;;4.80;;
3054;SDS011;1537;52.018;8.542;2023-09-19T05:12:13;16.87;;;5.53;;
3054;SDS011;1537;52.018;8.542;2023-09-19T05:15:43;15.50;;;5.00;;
3054;SDS011;1537;52.018;8.542;2023-09-19T05:19:07;12.63;;;4.60;;
3054;SDS011;1537;52.018;8.542;2023-09-19T05:22:34;11.93;;;4.60;;
3054;SDS011;1537;52.018;8.542;2023-09-19T05:25:58;11.83;;;4.67;;
3054;SDS011;1537;52.018;8.542;2023-09-19T05:29:22;11.50;;;4.73;;
3054;SDS011;1537;52.018;8.542;2023-09-19T05:32:47;11.10;;;4.87;;
3054;SDS011;1537;52.018;8.542;2023-09-19T05:36:12;15.37;;;5.50;;
3054;SDS011;1537;52.018;8.542;2023-09-19T05:39:38;11.50;;;5.20;;
3054;SDS011;1537;52.018;8.542;2023-09-19T05:43:03;15.67;;;5.47;;
3054;SDS011;1537;52.018;8.542;2023-09-19T05:46:28;14.03;;;5.67;;
3054;SDS011;1537;52.018;8.542;2023-09-19T05:49:54;13.40;;;4.50;;
3054;SDS011;1537;52.018;8.542;2023-09-19T05:53:19;12.30;;;4.97;;
3054;SDS011;1537;52.018;8.542;2023-09-19T05:56:43;21.47;;;6.37;;
3054;SDS011;1537;52.018;8.542;2023-09-19T06:00:10;12.20;;;5.10;;
3054;SDS011;1537;52.018;8.542;2023-09-19T06:03:35;16.63;;;5.40;;
3054;SDS011;1537;52.018;8.542;2023-09-19T06:07:02;12.70;;;5.23;;
3054;SDS011;1537;52.018;8.542;2023-09-19T06:10:28;8.93;;;4.90;;
3054;SDS011;1537;52.018;8.542;2023-09-19T06:13:53;13.27;;;4.83;;
3054;SDS011;1537;52.018;8.542;2023-09-19T06:17:18;12.53;;;4.97;;
3054;SDS011;1537;52.018;8.542;2023-09-19T06:20:42;12.60;;;5.63;;
3054;SDS011;1537;52.018;8.542;2023-09-19T06:24:15;11.07;;;4.77;;
3054;SDS011;1537;52.018;8.542;2023-09-19T06:27:39;11.57;;;4.50;;
3054;SDS011;1537;52.018;8.542;2023-09-19T06:31:05;11.47;;;5.83;;
3054;SDS011;1537;52.018;8.542;2023-09-19T06:34:32;9.70;;;4.57;;
3054;SDS011;1537;52.018;8.542;2023-09-19T06:38:02;12.47;;;5.20;;
3054;SDS011;1537;52.018;8.542;2023-09-19T06:41:30;10.83;;;4.67;;
3054;SDS011;1537;52.018;8.542;2023-09-19T06:45:00;14.07;;;5.30;;
3054;SDS011;1537;52.018;8.542;2023-09-19T06:48:27;10.13;;;5.47;;
3054;SDS011;1537;52.018;8.542;2023-09-19T06:51:54;12.97;;;5.60;;
3054;SDS011;1537;52.018;8.542;2023-09-19T06:55:20;7.10;;;5.00;;
3054;SDS011;1537;52.018;8.542;2023-09-19T06:58:52;12.17;;;5.60;;
3054;SDS011;1537;52.018;8.542;2023-09-19T07:02:20;9.43;;;5.30;;
3054;SDS011;1537;52.018;8.542;2023-09-19T07:05:46;12.53;;;4.80;;
3054;SDS011;1537;52.018;8.542;2023-09-19T07:09:12;16.60;;;5.30;;
3054;SDS011;1537;52.018;8.542;2023-09-19T07:12:37;10.30;;;5.40;;
3054;SDS011;1537;52.018;8.542;2023-09-19T07:16:05;9.63;;;5.03;;
3054;SDS011;1537;52.018;8.542;2023-09-19T07:19:31;15.67;;;5.10;;
3054;SDS011;1537;52.018;8.542;2023-09-19T07:22:55;11.70;;;4.93;;
3054;SDS011;1537;52.018;8.542;2023-09-19T07:26:22;12.37;;;5.27;;
3054;SDS011;1537;52.018;8.542;2023-09-19T07:29:45;10.30;;;5.30;;
3054;SDS011;1537;52.018;8.542;2023-09-19T07:33:14;12.00;;;5.03;;
3054;SDS011;1537;52.018;8.542;2023-09-19T07:36:38;9.00;;;4.80;;
3054;SDS011;1537;52.018;8.542;2023-09-19T07:40:04;9.67;;;4.43;;
3054;SDS011;1537;52.018;8.542;2023-09-19T07:43:30;13.17;;;5.00;;
3054;SDS011;1537;52.018;8.542;2023-09-19T07:46:55;11.60;;;5.50;;
3054;SDS011;1537;52.018;8.542;2023-09-19T07:50:20;8.90;;;5.17;;
3054;SDS011;1537;52.018;8.542;2023-09-19T07:53:44;9.27;;;5.70;;
3054;SDS011;1537;52.018;8.542;2023-09-19T07:57:10;12.27;;;5.73;;
3054;SDS011;1537;52.018;8.542;2023-09-19T08:00:34;9.33;;;5.00;;
3054;SDS011;1537;52.018;8.542;2023-09-19T08:03:58;11.33;;;5.27;;
3054;SDS011;1537;52.018;8.542;2023-09-19T08:07:26;9.30;;;5.67;;
3054;SDS011;1537;52.018;8.542;2023-09-19T08:10:52;13.07;;;5.77;;
3054;SDS011;1537;52.018;8.542;2023-09-19T08:14:18;13.03;;;5.30;;
3054;SDS011;1537;52.018;8.542;2023-09-19T08:17:41;10.03;;;5.40;;
3054;SDS011;1537;52.018;8.542;2023-09-19T08:21:05;10.83;;;6.20;;
3054;SDS011;1537;52.018;8.542;2023-09-19T08:24:34;17.33;;;5.93;;
3054;SDS011;1537;52.018;8.542;2023-09-19T08:27:57;10.27;;;6.07;;
3054;SDS011;1537;52.018;8.542;2023-09-19T08:31:23;14.23;;;5.77;;
3054;SDS011;1537;52.018;8.542;2023-09-19T08:34:48;10.40;;;5.90;;
3054;SDS011;1537;52.018;8.542;2023-09-19T08:38:12;13.37;;;5.80;;
3054;SDS011;1537;52.018;8.542;2023-09-19T08:41:37;12.47;;;6.80;;
3054;SDS011;1537;52.018;8.542;2023-09-19T08:45:01;10.57;;;5.60;;
3054;SDS011;1537;52.018;8.542;2023-09-19T08:48:26;9.90;;;6.27;;
3054;SDS011;1537;52.018;8.542;2023-09-19T08:51:52;10.20;;;5.87;;
3054;SDS011;1537;52.018;8.542;2023-09-19T08:55:23;10.10;;;6.60;;
3054;SDS011;1537;52.018;8.542;2023-09-19T08:58:53;14.00;;;6.43;;
3054;SDS011;1537;52.018;8.542;2023-09-19T09:02:23;11.10;;;6.03;;
3054;SDS011;1537;52.018;8.542;2023-09-19T09:05:48;13.10;;;5.90;;
3054;SDS011;1537;52.018;8.542;2023-09-19T09:09:14;12.07;;;6.20;;
3054;SDS011;1537;52.018;8.542;2023-09-19T09:12:38;9.50;;;5.13;;
3054;SDS011;1537;52.018;8.542;2023-09-19T09:16:04;12.10;;;6.13;;
3054;SDS011;1537;52.018;8.542;2023-09-19T09:19:29;12.33;;;6.07;;
3054;SDS011;1537;52.018;8.542;2023-09-19T09:22:54;9.97;;;5.73;;
3054;SDS011;1537;52.018;8.542;2023-09-19T09:26:40;10.23;;;5.30;;
3054;SDS011;1537;52.018;8.542;2023-09-19T09:30:06;9.90;;;6.13;;
3054;SDS011;1537;52.018;8.542;2023-09-19T09:33:32;12.20;;;5.90;;
3054;SDS011;1537;52.018;8.542;2023-09-19T09:36:56;10.70;;;6.17;;
3054;SDS011;1537;52.018;8.542;2023-09-19T09:40:20;13.87;;;7.00;;
3054;SDS011;1537;52.018;8.542;2023-09-19T09:43:58;10.90;;;4.20;;
3054;SDS011;1537;52.018;8.542;2023-09-19T09:47:44;14.23;;;4.00;;
3054;SDS011;1537;52.018;8.542;2023-09-19T09:51:18;14.07;;;4.30;;
3054;SDS011;1537;52.018;8.542;2023-09-19T09:54:59;8.47;;;3.63;;
3054;SDS011;1537;52.018;8.542;2023-09-19T09:58:28;10.20;;;3.87;;
3054;SDS011;1537;52.018;8.542;2023-09-19T10:01:55;12.33;;;4.70;;
3054;SDS011;1537;52.018;8.542;2023-09-19T10:05:25;13.20;;;4.40;;
3054;SDS011;1537;52.018;8.542;2023-09-19T10:09:04;11.30;;;5.20;;
3054;SDS011;1537;52.018;8.542;2023-09-19T10:12:34;9.53;;;5.47;;
3054;SDS011;1537;52.018;8.542;2023-09-19T10:16:00;11.23;;;5.40;;
3054;SDS011;1537;52.018;8.542;2023-09-19T10:19:35;12.60;;;5.97;;
3054;SDS011;1537;52.018;8.542;2023-09-19T10:23:00;9.57;;;5.53;;
3054;SDS011;1537;52.018;8.542;2023-09-19T10:26:32;13.03;;;5.83;;
3054;SDS011;1537;52.018;8.542;2023-09-19T10:29:59;9.33;;;6.30;;
3054;SDS011;1537;52.018;8.542;2023-09-19T10:33:23;10.87;;;6.50;;
3054;SDS011;1537;52.018;8.542;2023-09-19T10:36:48;8.00;;;5.40;;
3054;SDS011;1537;52.018;8.542;2023-09-19T10:40:15;10.73;;;5.93;;
3054;SDS011;1537;52.018;8.542;2023-09-19T10:43:43;18.83;;;4.10;;
3054;SDS011;1537;52.018;8.542;2023-09-19T10:47:11;10.50;;;4.50;;
3054;SDS011;1537;52.018;8.542;2023-09-19T10:50:36;8.17;;;3.80;;
3054;SDS011;1537;52.018;8.542;2023-09-19T10:54:08;13.80;;;3.93;;
3054;SDS011;1537;52.018;8.542;2023-09-19T10:57:37;7.57;;;4.27;;
3054;SDS011;1537;52.018;8.542;2023-09-19T11:01:03;10.00;;;5.13;;
3054;SDS011;1537;52.018;8.542;2023-09-19T11:04:34;9.60;;;3.63;;
3054;SDS011;1537;52.018;8.542;2023-09-19T11:08:00;10.23;;;3.80;;
3054;SDS011;1537;52.018;8.542;2023-09-19T11:11:39;14.10;;;6.10;;
3054;SDS011;1537;52.018;8.542;2023-09-19T11:15:08;9.17;;;5.10;;
3054;SDS011;1537;52.018;8.542;2023-09-19T11:18:53;9.10;;;5.87;;
3054;SDS011;1537;52.018;8.542;2023-09-19T11:22:17;11.50;;;6.10;;
3054;SDS011;1537;52.018;8.542;2023-09-19T11:25:44;15.00;;;6.57;;
3054;SDS011;1537;52.018;8.542;2023-09-19T11:29:24;12.20;;;5.80;;
3054;SDS011;1537;52.018;8.542;2023-09-19T11:36:44;9.73;;;6.13;;
3054;SDS011;1537;52.018;8.542;2023-09-19T11:40:08;14.43;;;6.57;;
3054;SDS011;1537;52.018;8.542;2023-09-19T11:43:38;11.83;;;5.83;;
3054;SDS011;1537;52.018;8.542;2023-09-19T11:47:03;21.77;;;6.20;;
3054;SDS011;1537;52.018;8.542;2023-09-19T11:50:29;12.20;;;6.37;;
3054;SDS011;1537;52.018;8.542;2023-09-19T11:53:56;10.20;;;5.90;;
3054;SDS011;1537;52.018;8.542;2023-09-19T11:57:21;14.00;;;6.90;;
3054;SDS011;1537;52.018;8.542;2023-09-19T12:00:46;9.83;;;5.90;;
3054;SDS011;1537;52.018;8.542;2023-09-19T12:04:19;9.57;;;6.07;;
3054;SDS011;1537;52.018;8.542;2023-09-19T12:07:59;9.90;;;5.73;;
3054;SDS011;1537;52.018;8.542;2023-09-19T12:11:30;12.67;;;5.67;;
3054;SDS011;1537;52.018;8.542;2023-09-19T12:14:56;10.37;;;6.50;;
3054;SDS011;1537;52.018;8.542;2023-09-19T12:18:27;13.13;;;5.53;;
3054;SDS011;1537;52.018;8.542;2023-09-19T12:21:58;17.63;;;6.77;;
3054;SDS011;1537;52.018;8.542;2023-09-19T12:25:26;11.00;;;6.07;;
3054;SDS011;1537;52.018;8.542;2023-09-19T12:29:13;10.13;;;6.07;;
3054;SDS011;1537;52.018;8.542;2023-09-19T12:32:40;7.27;;;5.80;;
3054;SDS011;1537;52.018;8.542;2023-09-19T12:36:18;11.57;;;5.70;;
3054;SDS011;1537;52.018;8.542;2023-09-19T12:39:47;9.43;;;6.20;;
3054;SDS011;1537;52.018;8.542;2023-09-19T12:43:13;14.90;;;7.20;;
3054;SDS011;1537;52.018;8.542;2023-09-19T12:46:41;10.63;;;6.63;;
3054;SDS011;1537;52.018;8.542;2023-09-19T12:50:06;7.63;;;5.97;;
3054;SDS011;1537;52.018;8.542;2023-09-19T12:53:39;8.50;;;5.70;;
3054;SDS011;1537;52.018;8.542;2023-09-19T12:57:05;8.07;;;5.33;;
3054;SDS011;1537;52.018;8.542;2023-09-19T13:00:32;8.70;;;5.47;;
3054;SDS011;1537;52.018;8.542;2023-09-19T13:04:11;10.47;;;6.07;;
3054;SDS011;1537;52.018;8.542;2023-09-19T13:07:40;8.13;;;5.20;;
3054;SDS011;1537;52.018;8.542;2023-09-19T13:11:08;13.20;;;5.20;;
3054;SDS011;1537;52.018;8.542;2023-09-19T13:14:34;8.77;;;5.10;;
3054;SDS011;1537;52.018;8.542;2023-09-19T13:18:02;13.10;;;5.17;;
3054;SDS011;1537;52.018;8.542;2023-09-19T13:21:37;10.50;;;5.83;;
3054;SDS011;1537;52.018;8.542;2023-09-19T13:25:05;8.20;;;4.90;;
3054;SDS011;1537;52.018;8.542;2023-09-19T13:28:40;10.33;;;4.83;;
3054;SDS011;1537;52.018;8.542;2023-09-19T13:32:06;10.63;;;5.93;;
3054;SDS011;1537;52.018;8.542;2023-09-19T13:35:33;8.10;;;5.60;;
3054;SDS011;1537;52.018;8.542;2023-09-19T13:38:58;9.70;;;5.70;;
3054;SDS011;1537;52.018;8.542;2023-09-19T13:42:23;8.97;;;5.60;;
3054;SDS011;1537;52.018;8.542;2023-09-19T13:45:51;9.70;;;5.40;;
3054;SDS011;1537;52.018;8.542;2023-09-19T13:49:15;10.43;;;5.40;;
3054;SDS011;1537;52.018;8.542;2023-09-19T13:52:42;9.67;;;5.30;;
3054;SDS011;1537;52.018;8.542;2023-09-19T13:56:08;8.00;;;5.53;;
3054;SDS011;1537;52.018;8.542;2023-09-19T13:59:33;7.50;;;5.77;;
3054;SDS011;1537;52.018;8.542;2023-09-19T14:02:57;9.97;;;5.10;;
3054;SDS011;1537;52.018;8.542;2023-09-19T14:06:21;9.10;;;3.30;;
3054;SDS011;1537;52.018;8.542;2023-09-19T14:09:45;7.13;;;3.03;;
3054;SDS011;1537;52.018;8.542;2023-09-19T14:13:11;10.00;;;3.20;;
3054;SDS011;1537;52.018;8.542;2023-09-19T14:16:37;6.67;;;2.70;;
3054;SDS011;1537;52.018;8.542;2023-09-19T14:20:04;9.30;;;3.17;;
3054;SDS011;1537;52.018;8.542;2023-09-19T14:23:33;7.63;;;3.60;;
3054;SDS011;1537;52.018;8.542;2023-09-19T14:26:58;10.07;;;4.23;;
3054;SDS011;1537;52.018;8.542;2023-09-19T14:30:24;8.43;;;3.60;;
3054;SDS011;1537;52.018;8.542;2023-09-19T14:33:52;12.73;;;4.90;;
3054;SDS011;1537;52.018;8.542;2023-09-19T14:37:17;8.53;;;5.20;;
3054;SDS011;1537;52.018;8.542;2023-09-19T14:40:43;7.77;;;5.37;;
3054;SDS011;1537;52.018;8.542;2023-09-19T14:44:06;10.67;;;4.77;;
3054;SDS011;1537;52.018;8.542;2023-09-19T14:47:33;7.00;;;5.70;;
3054;SDS011;1537;52.018;8.542;2023-09-19T14:51:01;9.53;;;4.67;;
3054;SDS011;1537;52.018;8.542;2023-09-19T14:54:26;9.40;;;5.27;;
3054;SDS011;1537;52.018;8.542;2023-09-19T14:57:51;10.80;;;3.70;;
3054;SDS011;1537;52.018;8.542;2023-09-19T15:01:15;8.93;;;5.70;;
3054;SDS011;1537;52.018;8.542;2023-09-19T15:04:40;8.57;;;5.53;;
3054;SDS011;1537;52.018;8.542;2023-09-19T15:08:06;8.77;;;5.40;;
3054;SDS011;1537;52.018;8.542;2023-09-19T15:11:30;10.87;;;6.00;;
3054;SDS011;1537;52.018;8.542;2023-09-19T15:14:54;8.60;;;5.77;;
3054;SDS011;1537;52.018;8.542;2023-09-19T15:18:18;10.87;;;5.90;;
3054;SDS011;1537;52.018;8.542;2023-09-19T15:21:43;9.97;;;5.37;;
3054;SDS011;1537;52.018;8.542;2023-09-19T15:25:07;8.23;;;6.17;;
3054;SDS011;1537;52.018;8.542;2023-09-19T15:28:32;10.53;;;5.90;;
3054;SDS011;1537;52.018;8.542;2023-09-19T15:31:56;8.83;;;5.10;;
3054;SDS011;1537;52.018;8.542;2023-09-19T15:35:24;11.23;;;5.40;;
3054;SDS011;1537;52.018;8.542;2023-09-19T15:38:59;9.23;;;4.90;;
3054;SDS011;1537;52.018;8.542;2023-09-19T15:42:25;9.07;;;4.97;;
3054;SDS011;1537;52.018;8.542;2023-09-19T15:45:48;5.80;;;4.50;;
3054;SDS011;1537;52.018;8.542;2023-09-19T15:49:12;7.03;;;4.70;;
3054;SDS011;1537;52.018;8.542;2023-09-19T15:52:36;7.13;;;4.47;;
3054;SDS011;1537;52.018;8.542;2023-09-19T15:56:02;6.90;;;4.90;;
3054;SDS011;1537;52.018;8.542;2023-09-19T15:59:29;5.80;;;4.50;;
3054;SDS011;1537;52.018;8.542;2023-09-19T16:02:52;6.50;;;4.77;;
3054;SDS011;1537;52.018;8.542;2023-09-19T16:06:17;6.73;;;4.17;;
3054;SDS011;1537;52.018;8.542;2023-09-19T16:09:42;6.13;;;4.43;;
3054;SDS011;1537;52.018;8.542;2023-09-19T16:13:07;6.43;;;4.40;;
3054;SDS011;1537;52.018;8.542;2023-09-19T16:16:31;7.27;;;4.10;;
3054;SDS011;1537;52.018;8.542;2023-09-19T16:19:57;11.50;;;4.60;;
3054;SDS011;1537;52.018;8.542;2023-09-19T16:23:21;7.47;;;4.17;;
3054;SDS011;1537;52.018;8.542;2023-09-19T16:26:44;7.37;;;4.03;;
3054;SDS011;1537;52.018;8.542;2023-09-19T16:30:10;7.07;;;4.00;;
3054;SDS011;1537;52.018;8.542;2023-09-19T16:33:36;7.03;;;3.80;;
3054;SDS011;1537;52.018;8.542;2023-09-19T16:37:03;7.67;;;5.30;;
3054;SDS011;1537;52.018;8.542;2023-09-19T16:40:27;6.90;;;3.23;;
3054;SDS011;1537;52.018;8.542;2023-09-19T16:43:50;6.23;;;3.20;;
3054;SDS011;1537;52.018;8.542;2023-09-19T16:47:15;7.63;;;3.63;;
3054;SDS011;1537;52.018;8.542;2023-09-19T16:50:39;5.17;;;3.50;;
3054;SDS011;1537;52.018;8.542;2023-09-19T16:54:04;6.90;;;3.93;;
3054;SDS011;1537;52.018;8.542;2023-09-19T16:57:28;6.63;;;3.67;;
3054;SDS011;1537;52.018;8.542;2023-09-19T17:00:52;8.20;;;2.60;;
3054;SDS011;1537;52.018;8.542;2023-09-19T17:04:19;5.23;;;2.67;;
3054;SDS011;1537;52.018;8.542;2023-09-19T17:07:42;6.13;;;4.20;;
3054;SDS011;1537;52.018;8.542;2023-09-19T17:11:08;12.80;;;4.30;;
3054;SDS011;1537;52.018;8.542;2023-09-19T17:14:33;5.77;;;4.23;;
3054;SDS011;1537;52.018;8.542;2023-09-19T17:17:57;7.87;;;4.60;;
3054;SDS011;1537;52.018;8.542;2023-09-19T17:21:23;6.20;;;3.87;;
3054;SDS011;1537;52.018;8.542;2023-09-19T17:24:48;5.40;;;4.07;;
3054;SDS011;1537;52.018;8.542;2023-09-19T17:28:13;6.50;;;4.37;;
3054;SDS011;1537;52.018;8.542;2023-09-19T17:31:37;6.33;;;4.23;;
3054;SDS011;1537;52.018;8.542;2023-09-19T17:35:04;8.00;;;4.07;;
3054;SDS011;1537;52.018;8.542;2023-09-19T17:38:29;6.47;;;4.10;;
3054;SDS011;1537;52.018;8.542;2023-09-19T17:41:53;5.70;;;3.70;;
3054;SDS011;1537;52.018;8.542;2023-09-19T17:45:16;6.70;;;4.23;;
3054;SDS011;1537;52.018;8.542;2023-09-19T17:48:41;6.80;;;3.53;;
3054;SDS011;1537;52.018;8.542;2023-09-19T17:52:07;8.13;;;3.90;;
3054;SDS011;1537;52.018;8.542;2023-09-19T17:55:37;7.63;;;3.90;;
3054;SDS011;1537;52.018;8.542;2023-09-19T17:59:01;7.30;;;4.07;;
3054;SDS011;1537;52.018;8.542;2023-09-19T18:02:25;5.97;;;4.50;;
3054;SDS011;1537;52.018;8.542;2023-09-19T18:05:50;6.07;;;3.90;;
3054;SDS011;1537;52.018;8.542;2023-09-19T18:09:15;5.63;;;4.20;;
3054;SDS011;1537;52.018;8.542;2023-09-19T18:12:41;7.33;;;4.80;;
3054;SDS011;1537;52.018;8.542;2023-09-19T18:16:07;7.53;;;4.10;;
3054;SDS011;1537;52.018;8.542;2023-09-19T18:19:32;10.10;;;4.03;;
3054;SDS011;1537;52.018;8.542;2023-09-19T18:22:56;7.07;;;4.47;;
3054;SDS011;1537;52.018;8.542;2023-09-19T18:26:21;7.83;;;4.30;;
3054;SDS011;1537;52.018;8.542;2023-09-19T18:29:46;8.00;;;4.70;;
3054;SDS011;1537;52.018;8.542;2023-09-19T18:33:10;7.50;;;4.40;;
3054;SDS011;1537;52.018;8.542;2023-09-19T18:36:35;7.27;;;4.37;;
3054;SDS011;1537;52.018;8.542;2023-09-19T18:40:00;7.73;;;4.03;;
3054;SDS011;1537;52.018;8.542;2023-09-19T18:43:24;6.13;;;4.07;;
3054;SDS011;1537;52.018;8.542;2023-09-19T18:46:50;5.60;;;3.57;;
3054;SDS011;1537;52.018;8.542;2023-09-19T18:50:14;10.90;;;4.50;;
3054;SDS011;1537;52.018;8.542;2023-09-19T18:53:38;7.63;;;4.10;;
3054;SDS011;1537;52.018;8.542;2023-09-19T18:57:05;6.73;;;3.80;;
3054;SDS011;1537;52.018;8.542;2023-09-19T19:00:29;8.97;;;3.83;;
3054;SDS011;1537;52.018;8.542;2023-09-19T19:03:56;6.73;;;3.57;;
3054;SDS011;1537;52.018;8.542;2023-09-19T19:07:19;6.87;;;4.20;;
3054;SDS011;1537;52.018;8.542;2023-09-19T19:10:43;7.63;;;4.03;;
3054;SDS011;1537;52.018;8.542;2023-09-19T19:14:07;6.33;;;3.83;;
3054;SDS011;1537;52.018;8.542;2023-09-19T19:17:32;7.60;;;3.80;;
3054;SDS011;1537;52.018;8.542;2023-09-19T19:20:59;6.83;;;3.90;;
3054;SDS011;1537;52.018;8.542;2023-09-19T19:24:22;6.03;;;4.03;;
3054;SDS011;1537;52.018;8.542;2023-09-19T19:27:46;7.03;;;4.00;;
3054;SDS011;1537;52.018;8.542;2023-09-19T19:31:12;8.67;;;3.70;;
3054;SDS011;1537;52.018;8.542;2023-09-19T19:34:36;7.73;;;3.90;;
3054;SDS011;1537;52.018;8.542;2023-09-19T19:38:01;6.70;;;3.70;;
3054;SDS011;1537;52.018;8.542;2023-09-19T19:41:26;6.23;;;4.10;;
3054;SDS011;1537;52.018;8.542;2023-09-19T19:44:49;7.40;;;4.47;;
3054;SDS011;1537;52.018;8.542;2023-09-19T19:48:16;7.00;;;4.23;;
3054;SDS011;1537;52.018;8.542;2023-09-19T19:51:39;4.93;;;3.63;;
3054;SDS011;1537;52.018;8.542;2023-09-19T19:55:06;6.33;;;4.70;;
3054;SDS011;1537;52.018;8.542;2023-09-19T19:58:31;6.30;;;4.47;;
3054;SDS011;1537;52.018;8.542;2023-09-19T20:01:55;7.33;;;4.53;;
3054;SDS011;1537;52.018;8.542;2023-09-19T20:05:19;6.00;;;4.03;;
3054;SDS011;1537;52.018;8.542;2023-09-19T20:08:43;6.20;;;4.03;;
3054;SDS011;1537;52.018;8.542;2023-09-19T20:12:08;6.67;;;4.30;;
3054;SDS011;1537;52.018;8.542;2023-09-19T20:15:33;9.50;;;5.13;;
3054;SDS011;1537;52.018;8.542;2023-09-19T20:18:59;7.70;;;4.90;;
3054;SDS011;1537;52.018;8.542;2023-09-19T20:22:26;7.60;;;4.47;;
3054;SDS011;1537;52.018;8.542;2023-09-19T20:25:50;6.07;;;4.40;;
3054;SDS011;1537;52.018;8.542;2023-09-19T20:29:15;6.93;;;4.93;;
3054;SDS011;1537;52.018;8.542;2023-09-19T20:32:41;6.70;;;4.20;;
3054;SDS011;1537;52.018;8.542;2023-09-19T20:36:07;6.10;;;4.73;;
3054;SDS011;1537;52.018;8.542;2023-09-19T20:39:32;4.80;;;3.80;;
3054;SDS011;1537;52.018;8.542;2023-09-19T20:42:57;13.23;;;6.40;;
3054;SDS011;1537;52.018;8.542;2023-09-19T20:46:25;11.17;;;4.90;;
3054;SDS011;1537;52.018;8.542;2023-09-19T20:49:50;8.60;;;4.40;;
3054;SDS011;1537;52.018;8.542;2023-09-19T20:53:14;7.13;;;4.57;;
3054;SDS011;1537;52.018;8.542;2023-09-19T20:56:38;8.90;;;4.63;;
3054;SDS011;1537;52.018;8.542;2023-09-19T21:00:02;7.30;;;4.47;;
3054;SDS011;1537;52.018;8.542;2023-09-19T21:03:31;5.60;;;4.30;;
3054;SDS011;1537;52.018;8.542;2023-09-19T21:06:56;7.90;;;4.33;;
3054;SDS011;1537;52.018;8.542;2023-09-19T21:10:20;10.10;;;4.33;;
3054;SDS011;1537;52.018;8.542;2023-09-19T21:13:44;7.43;;;4.80;;
3054;SDS011;1537;52.018;8.542;2023-09-19T21:17:11;6.77;;;4.20;;